Time,TemperatureF,DewpointF,PressureIn,WindDirection,WindDirectionDegrees,WindSpeedMPH,WindSpeedGustMPH,Humidity,HourlyPrecipIn,Conditions,Clouds,dailyrainin,SoftwareType,DateUTC
2013-01-12 00:09:00,42.6,39.6,30.14,SSW,202,0.0,0.0,89,0.00,,,0.00,WUHU21523XXSP,2013-01-12 05:09:00,
2013-01-12 00:14:00,42.6,39.6,30.14,SSW,202,0.0,0.0,89,0.00,,,0.00,WUHU21523XXSP,2013-01-12 05:14:00,
2013-01-12 00:19:00,42.6,39.6,30.14,SSW,202,0.0,0.0,89,0.00,,,0.00,WUHU21523XXSP,2013-01-12 05:19:00,
2013-01-12 00:24:00,42.6,39.6,30.13,SSW,202,0.0,0.0,89,0.00,,,0.00,WUHU21523XXSP,2013-01-12 05:24:00,
2013-01-12 00:29:00,42.6,39.6,30.13,SSW,202,0.0,0.0,89,0.00,,,0.00,WUHU21523XXSP,2013-01-12 05:29:00,
2013-01-12 00:34:00,42.6,39.6,30.14,SSW,202,0.0,0.0,89,0.00,,,0.00,WUHU21523XXSP,2013-01-12 05:34:00,
2013-01-12 00:39:00,42.6,39.6,30.14,SSW,202,0.0,0.0,89,0.00,,,0.00,WUHU21523XXSP,2013-01-12 05:39:00,
2013-01-12 00:44:00,42.6,39.6,30.14,SSW,202,0.0,0.0,89,0.00,,,0.00,WUHU21523XXSP,2013-01-12 05:44:00,
2013-01-12 00:49:00,42.6,39.6,30.14,SSW,202,0.0,0.0,89,0.00,,,0.00,WUHU21523XXSP,2013-01-12 05:49:00,
2013-01-12 00:54:00,42.6,39.6,30.14,SSW,202,0.0,0.0,89,0.00,,,0.00,WUHU21523XXSP,2013-01-12 05:54:00,
2013-01-12 00:59:00,42.6,39.6,30.13,SSW,202,0.0,0.0,89,0.00,,,0.00,WUHU21523XXSP,2013-01-12 05:59:00,
2013-01-12 01:07:00,42.6,39.6,30.14,SSW,202,0.0,0.0,89,0.00,,,0.00,WUHU21523XXSP,2013-01-12 06:07:00,
2013-01-12 01:12:00,42.6,39.6,30.14,SSW,202,0.0,0.0,89,0.00,,,0.00,WUHU21523XXSP,2013-01-12 06:12:00,
2013-01-12 01:17:00,42.6,39.6,30.14,SSW,202,0.0,0.0,89,0.00,,,0.00,WUHU21523XXSP,2013-01-12 06:17:00,
2013-01-12 01:22:00,42.6,39.6,30.14,SSW,202,0.0,0.0,89,0.00,,,0.00,WUHU21523XXSP,2013-01-12 06:22:00,
2013-01-12 01:27:00,42.6,39.6,30.14,West,270,0.0,0.0,89,0.00,,,0.00,WUHU21523XXSP,2013-01-12 06:27:00,
2013-01-12 01:37:00,42.6,39.6,30.15,West,270,0.0,0.0,89,0.00,,,0.00,WUHU21523XXSP,2013-01-12 06:37:00,
2013-01-12 01:42:00,42.6,39.6,30.14,West,270,0.0,0.0,89,0.00,,,0.00,WUHU21523XXSP,2013-01-12 06:42:00,
2013-01-12 01:47:00,42.6,39.6,30.15,West,270,0.0,0.0,89,0.00,,,0.00,WUHU21523XXSP,2013-01-12 06:47:00,
2013-01-12 01:52:00,42.6,39.6,30.15,South,180,0.0,0.0,89,0.00,,,0.00,WUHU21523XXSP,2013-01-12 06:52:00,
2013-01-12 01:57:00,42.6,39.6,30.15,South,180,0.0,0.0,89,0.00,,,0.00,WUHU21523XXSP,2013-01-12 06:57:00,
2013-01-12 02:02:00,42.6,39.6,30.15,South,180,0.0,0.0,89,0.00,,,0.00,WUHU21523XXSP,2013-01-12 07:02:00,
2013-01-12 02:07:00,42.6,39.6,30.15,South,180,0.0,0.0,89,0.00,,,0.00,WUHU21523XXSP,2013-01-12 07:07:00,
2013-01-12 02:12:00,42.6,39.6,30.15,South,180,0.0,0.0,89,0.00,,,0.00,WUHU21523XXSP,2013-01-12 07:12:00,
2013-01-12 02:17:00,42.6,39.6,30.15,South,180,0.0,0.0,89,0.00,,,0.00,WUHU21523XXSP,2013-01-12 07:17:00,
2013-01-12 02:22:00,42.6,39.6,30.15,South,180,0.0,0.0,89,0.00,,,0.00,WUHU21523XXSP,2013-01-12 07:22:00,
2013-01-12 02:27:00,42.6,39.6,30.15,South,180,0.0,0.0,89,0.00,,,0.00,WUHU21523XXSP,2013-01-12 07:27:00,
2013-01-12 02:32:00,42.6,39.6,30.15,South,180,0.0,0.0,89,0.00,,,0.00,WUHU21523XXSP,2013-01-12 07:32:00,
2013-01-12 02:37:00,42.8,39.8,30.15,South,180,0.0,0.0,89,0.00,,,0.00,WUHU21523XXSP,2013-01-12 07:37:00,
2013-01-12 02:42:00,42.8,39.8,30.15,South,180,0.0,0.0,89,0.00,,,0.00,WUHU21523XXSP,2013-01-12 07:42:00,
2013-01-12 02:47:00,42.6,39.6,30.15,South,180,0.0,0.0,89,0.00,,,0.00,WUHU21523XXSP,2013-01-12 07:47:00,
2013-01-12 02:52:00,42.6,39.6,30.15,South,180,0.0,0.0,89,0.00,,,0.00,WUHU21523XXSP,2013-01-12 07:52:00,
2013-01-12 02:57:00,42.6,39.6,30.14,South,180,0.0,0.0,89,0.00,,,0.00,WUHU21523XXSP,2013-01-12 07:57:00,
2013-01-12 03:02:00,42.6,39.6,30.14,South,180,0.0,0.0,89,0.00,,,0.00,WUHU21523XXSP,2013-01-12 08:02:00,
2013-01-12 03:07:00,42.6,39.6,30.14,South,180,0.0,0.0,89,0.00,,,0.00,WUHU21523XXSP,2013-01-12 08:07:00,
2013-01-12 03:12:00,42.6,39.6,30.13,South,180,0.0,0.0,89,0.00,,,0.00,WUHU21523XXSP,2013-01-12 08:12:00,
2013-01-12 03:17:00,42.6,39.6,30.13,South,180,0.0,0.0,89,0.00,,,0.00,WUHU21523XXSP,2013-01-12 08:17:00,
2013-01-12 03:22:00,42.6,39.6,30.13,South,180,0.0,0.0,89,0.00,,,0.00,WUHU21523XXSP,2013-01-12 08:22:00,
2013-01-12 03:27:00,42.6,39.6,30.12,South,180,0.0,0.0,89,0.00,,,0.00,WUHU21523XXSP,2013-01-12 08:27:00,
2013-01-12 03:32:00,42.6,39.6,30.13,South,180,0.0,0.0,89,0.00,,,0.00,WUHU21523XXSP,2013-01-12 08:32:00,
2013-01-12 03:37:00,42.6,39.6,30.12,South,180,0.0,0.0,89,0.00,,,0.00,WUHU21523XXSP,2013-01-12 08:37:00,
2013-01-12 03:42:00,42.6,39.6,30.13,South,180,0.0,0.0,89,0.00,,,0.00,WUHU21523XXSP,2013-01-12 08:42:00,
2013-01-12 03:47:00,42.6,39.6,30.13,South,180,0.0,0.0,89,0.00,,,0.00,WUHU21523XXSP,2013-01-12 08:47:00,
2013-01-12 03:52:00,42.6,39.6,30.13,South,180,0.0,0.0,89,0.00,,,0.00,WUHU21523XXSP,2013-01-12 08:52:00,
2013-01-12 03:57:00,42.6,39.6,30.12,South,180,0.0,0.0,89,0.00,,,0.00,WUHU21523XXSP,2013-01-12 08:57:00,
2013-01-12 04:02:00,42.6,39.6,30.13,South,180,0.0,0.0,89,0.00,,,0.00,WUHU21523XXSP,2013-01-12 09:02:00,
2013-01-12 04:07:00,42.6,39.6,30.13,South,180,0.0,0.0,89,0.00,,,0.00,WUHU21523XXSP,2013-01-12 09:07:00,
2013-01-12 04:12:00,42.6,39.6,30.13,South,180,0.0,0.0,89,0.00,,,0.00,WUHU21523XXSP,2013-01-12 09:12:00,
2013-01-12 04:17:00,42.6,39.6,30.13,South,180,0.0,0.0,89,0.00,,,0.00,WUHU21523XXSP,2013-01-12 09:17:00,
2013-01-12 04:22:00,42.6,39.6,30.13,South,180,0.0,0.0,89,0.00,,,0.00,WUHU21523XXSP,2013-01-12 09:22:00,
2013-01-12 04:27:00,42.6,39.6,30.13,South,180,0.0,0.0,89,0.00,,,0.00,WUHU21523XXSP,2013-01-12 09:27:00,
2013-01-12 04:32:00,42.6,39.6,30.12,South,180,0.0,0.0,89,0.00,,,0.00,WUHU21523XXSP,2013-01-12 09:32:00,
2013-01-12 04:37:00,42.6,39.6,30.12,South,180,0.0,0.0,89,0.00,,,0.00,WUHU21523XXSP,2013-01-12 09:37:00,
2013-01-12 04:42:00,42.6,39.6,30.12,South,180,0.0,0.0,89,0.00,,,0.00,WUHU21523XXSP,2013-01-12 09:42:00,
2013-01-12 04:47:00,42.6,39.6,30.12,South,180,0.0,0.0,89,0.00,,,0.00,WUHU21523XXSP,2013-01-12 09:47:00,
2013-01-12 04:52:00,42.6,39.6,30.12,South,180,0.0,0.0,89,0.00,,,0.00,WUHU21523XXSP,2013-01-12 09:52:00,
2013-01-12 04:57:00,42.6,39.6,30.12,South,180,0.0,0.0,89,0.00,,,0.00,WUHU21523XXSP,2013-01-12 09:57:00,
2013-01-12 05:02:00,42.6,39.6,30.12,South,180,0.0,0.0,89,0.00,,,0.00,WUHU21523XXSP,2013-01-12 10:02:00,
2013-01-12 05:07:00,42.6,39.6,30.13,South,180,0.0,0.0,89,0.00,,,0.00,WUHU21523XXSP,2013-01-12 10:07:00,
2013-01-12 05:12:00,42.6,39.6,30.12,South,180,0.0,0.0,89,0.00,,,0.00,WUHU21523XXSP,2013-01-12 10:12:00,
2013-01-12 05:17:00,43.0,40.0,30.12,South,180,0.0,0.0,89,0.00,,,0.00,WUHU21523XXSP,2013-01-12 10:17:00,
2013-01-12 05:22:00,43.0,40.0,30.12,South,180,0.0,0.0,89,0.00,,,0.00,WUHU21523XXSP,2013-01-12 10:22:00,
2013-01-12 05:27:00,43.0,40.0,30.12,South,180,0.0,0.0,89,0.00,,,0.00,WUHU21523XXSP,2013-01-12 10:27:00,
2013-01-12 05:32:00,43.0,40.0,30.12,South,180,0.0,0.0,89,0.00,,,0.00,WUHU21523XXSP,2013-01-12 10:32:00,
2013-01-12 05:37:00,43.0,40.0,30.13,South,180,0.0,0.0,89,0.00,,,0.00,WUHU21523XXSP,2013-01-12 10:37:00,
2013-01-12 05:42:00,43.2,40.2,30.13,South,180,0.0,0.0,89,0.00,,,0.00,WUHU21523XXSP,2013-01-12 10:42:00,
2013-01-12 05:47:00,43.2,40.2,30.13,South,180,0.0,0.0,89,0.00,,,0.00,WUHU21523XXSP,2013-01-12 10:47:00,
2013-01-12 05:52:00,43.2,40.2,30.13,South,180,0.0,0.0,89,0.00,,,0.00,WUHU21523XXSP,2013-01-12 10:52:00,
2013-01-12 05:57:00,43.3,40.3,30.13,South,180,0.0,0.0,89,0.00,,,0.00,WUHU21523XXSP,2013-01-12 10:57:00,
2013-01-12 06:02:00,43.3,40.3,30.13,South,180,0.0,0.0,89,0.00,,,0.00,WUHU21523XXSP,2013-01-12 11:02:00,
2013-01-12 06:07:00,43.3,40.3,30.13,South,180,0.0,0.0,89,0.00,,,0.00,WUHU21523XXSP,2013-01-12 11:07:00,
2013-01-12 06:12:00,43.5,40.5,30.14,South,180,0.0,0.0,89,0.00,,,0.00,WUHU21523XXSP,2013-01-12 11:12:00,
2013-01-12 06:17:00,43.5,40.5,30.13,South,180,0.0,0.0,89,0.00,,,0.00,WUHU21523XXSP,2013-01-12 11:17:00,
2013-01-12 06:22:00,43.5,40.5,30.13,South,180,0.0,0.0,89,0.00,,,0.00,WUHU21523XXSP,2013-01-12 11:22:00,
2013-01-12 06:27:00,43.5,40.5,30.14,South,180,0.0,0.0,89,0.00,,,0.00,WUHU21523XXSP,2013-01-12 11:27:00,
2013-01-12 06:32:00,43.5,40.5,30.14,South,180,0.0,0.0,89,0.00,,,0.00,WUHU21523XXSP,2013-01-12 11:32:00,
2013-01-12 06:37:00,43.7,40.7,30.13,South,180,0.0,0.0,89,0.00,,,0.00,WUHU21523XXSP,2013-01-12 11:37:00,
2013-01-12 06:42:00,43.7,41.0,30.14,South,180,0.0,0.0,90,0.00,,,0.00,WUHU21523XXSP,2013-01-12 11:42:00,
2013-01-12 06:47:00,43.7,41.0,30.14,South,180,0.0,0.0,90,0.00,,,0.00,WUHU21523XXSP,2013-01-12 11:47:00,
2013-01-12 06:52:00,43.7,41.0,30.14,South,180,0.0,0.0,90,0.00,,,0.00,WUHU21523XXSP,2013-01-12 11:52:00,
2013-01-12 06:57:00,43.7,41.0,30.13,South,180,0.0,0.0,90,0.00,,,0.00,WUHU21523XXSP,2013-01-12 11:57:00,
2013-01-12 07:02:00,43.9,41.2,30.14,South,180,0.0,0.0,90,0.00,,,0.00,WUHU21523XXSP,2013-01-12 12:02:00,
2013-01-12 07:07:00,43.9,41.2,30.14,South,180,0.0,0.0,90,0.00,,,0.00,WUHU21523XXSP,2013-01-12 12:07:00,
2013-01-12 07:12:00,43.9,41.2,30.14,South,180,0.0,0.0,90,0.00,,,0.00,WUHU21523XXSP,2013-01-12 12:12:00,
2013-01-12 07:17:00,43.9,41.2,30.14,South,180,0.0,0.0,90,0.00,,,0.00,WUHU21523XXSP,2013-01-12 12:17:00,
2013-01-12 07:22:00,43.9,41.2,30.14,South,180,0.0,0.0,90,0.00,,,0.00,WUHU21523XXSP,2013-01-12 12:22:00,
2013-01-12 07:27:00,43.9,41.2,30.14,South,180,0.0,0.0,90,0.00,,,0.00,WUHU21523XXSP,2013-01-12 12:27:00,
2013-01-12 07:32:00,43.9,41.2,30.15,South,180,0.0,0.0,90,0.00,,,0.00,WUHU21523XXSP,2013-01-12 12:32:00,
2013-01-12 07:37:00,43.9,41.2,30.15,South,180,0.0,0.0,90,0.00,,,0.00,WUHU21523XXSP,2013-01-12 12:37:00,
2013-01-12 07:42:00,43.9,41.2,30.15,South,180,0.0,0.0,90,0.00,,,0.00,WUHU21523XXSP,2013-01-12 12:42:00,
2013-01-12 07:47:00,44.1,41.4,30.14,South,180,0.0,0.0,90,0.00,,,0.00,WUHU21523XXSP,2013-01-12 12:47:00,
2013-01-12 07:52:00,44.1,41.4,30.14,South,180,0.0,0.0,90,0.00,,,0.00,WUHU21523XXSP,2013-01-12 12:52:00,
2013-01-12 07:57:00,44.2,41.5,30.14,South,180,0.0,0.0,90,0.00,,,0.00,WUHU21523XXSP,2013-01-12 12:57:00,
2013-01-12 08:02:00,44.2,41.5,30.14,South,180,0.0,0.0,90,0.00,,,0.00,WUHU21523XXSP,2013-01-12 13:02:00,
2013-01-12 08:07:00,44.2,41.5,30.14,South,180,0.0,0.0,90,0.00,,,0.00,WUHU21523XXSP,2013-01-12 13:07:00,
2013-01-12 08:12:00,44.2,41.5,30.14,South,180,0.0,0.0,90,0.00,,,0.00,WUHU21523XXSP,2013-01-12 13:12:00,
2013-01-12 08:17:00,44.4,41.7,30.15,South,180,0.0,0.0,90,0.00,,,0.00,WUHU21523XXSP,2013-01-12 13:17:00,
2013-01-12 08:22:00,44.4,41.7,30.15,South,180,0.0,0.0,90,0.00,,,0.00,WUHU21523XXSP,2013-01-12 13:22:00,
2013-01-12 08:27:00,44.4,41.7,30.15,South,180,0.0,0.0,90,0.00,,,0.00,WUHU21523XXSP,2013-01-12 13:27:00,
2013-01-12 08:32:00,44.4,41.7,30.16,South,180,0.0,0.0,90,0.00,,,0.00,WUHU21523XXSP,2013-01-12 13:32:00,
2013-01-12 08:37:00,44.8,42.1,30.16,South,180,0.0,0.0,90,0.00,,,0.00,WUHU21523XXSP,2013-01-12 13:37:00,
2013-01-12 08:42:00,44.8,42.1,30.16,South,180,0.0,0.0,90,0.00,,,0.00,WUHU21523XXSP,2013-01-12 13:42:00,
2013-01-12 08:47:00,45.0,42.3,30.16,South,180,0.0,0.0,90,0.00,,,0.00,WUHU21523XXSP,2013-01-12 13:47:00,
2013-01-12 08:52:00,45.1,42.3,30.16,South,180,0.0,0.0,90,0.00,,,0.00,WUHU21523XXSP,2013-01-12 13:52:00,
2013-01-12 08:57:00,45.1,42.4,30.17,South,180,0.0,0.0,90,0.00,,,0.00,WUHU21523XXSP,2013-01-12 13:57:00,
2013-01-12 09:02:00,45.5,42.8,30.16,South,180,0.0,0.0,90,0.00,,,0.00,WUHU21523XXSP,2013-01-12 14:02:00,
2013-01-12 09:07:00,45.7,43.0,30.16,South,180,0.0,0.0,90,0.00,,,0.00,WUHU21523XXSP,2013-01-12 14:07:00,
2013-01-12 09:12:00,45.7,43.0,30.16,South,180,0.0,0.0,90,0.00,,,0.00,WUHU21523XXSP,2013-01-12 14:12:00,
2013-01-12 09:17:00,46.0,43.6,30.16,South,180,0.0,0.0,91,0.00,,,0.00,WUHU21523XXSP,2013-01-12 14:17:00,
2013-01-12 09:22:00,46.2,43.5,30.16,South,180,0.0,0.0,90,0.00,,,0.00,WUHU21523XXSP,2013-01-12 14:22:00,
2013-01-12 09:32:00,46.8,44.3,30.16,South,180,0.0,0.0,91,0.00,,,0.00,WUHU21523XXSP,2013-01-12 14:32:00,
2013-01-12 09:37:00,47.1,44.7,30.17,SSE,157,0.0,0.0,91,0.00,,,0.00,WUHU21523XXSP,2013-01-12 14:37:00,
2013-01-12 09:42:00,47.3,44.9,30.16,South,180,0.0,0.0,91,0.00,,,0.00,WUHU21523XXSP,2013-01-12 14:42:00,
2013-01-12 09:47:00,47.8,45.4,30.17,South,180,0.0,0.0,91,0.00,,,0.00,WUHU21523XXSP,2013-01-12 14:47:00,
2013-01-12 09:52:00,48.2,45.8,30.17,South,180,0.0,0.0,91,0.00,,,0.00,WUHU21523XXSP,2013-01-12 14:52:00,
2013-01-12 09:57:00,48.7,46.3,30.17,South,180,0.0,0.0,91,0.00,,,0.00,WUHU21523XXSP,2013-01-12 14:57:00,
2013-01-12 10:02:00,49.3,46.7,30.17,South,180,0.0,0.0,91,0.00,,,0.00,WUHU21523XXSP,2013-01-12 15:02:00,
2013-01-12 10:07:00,49.6,47.1,30.17,South,180,0.0,0.0,91,0.00,,,0.00,WUHU21523XXSP,2013-01-12 15:07:00,
2013-01-12 10:12:00,49.8,47.2,30.17,South,180,0.0,0.0,91,0.00,,,0.00,WUHU21523XXSP,2013-01-12 15:12:00,
2013-01-12 10:17:00,50.2,47.6,30.18,South,180,0.0,0.0,91,0.00,,,0.00,WUHU21523XXSP,2013-01-12 15:17:00,
2013-01-12 10:22:00,50.2,47.6,30.17,South,180,0.0,0.0,91,0.00,,,0.00,WUHU21523XXSP,2013-01-12 15:22:00,
2013-01-12 10:27:00,50.5,47.9,30.17,South,180,0.0,0.0,91,0.00,,,0.00,WUHU21523XXSP,2013-01-12 15:27:00,
2013-01-12 10:32:00,50.9,48.3,30.17,South,180,0.0,0.0,91,0.00,,,0.00,WUHU21523XXSP,2013-01-12 15:32:00,
2013-01-12 10:37:00,51.4,48.5,30.17,NE,45,0.0,0.0,91,0.00,,,0.00,WUHU21523XXSP,2013-01-12 15:37:00,
2013-01-12 10:42:00,51.6,49.0,30.17,ENE,67,0.0,0.0,91,0.00,,,0.00,WUHU21523XXSP,2013-01-12 15:42:00,
2013-01-12 10:47:00,52.3,49.5,30.17,SSE,157,0.0,0.0,90,0.00,,,0.00,WUHU21523XXSP,2013-01-12 15:47:00,
2013-01-12 10:52:00,52.7,49.6,30.17,SSE,157,0.0,0.0,90,0.00,,,0.00,WUHU21523XXSP,2013-01-12 15:52:00,
2013-01-12 10:57:00,52.9,50.0,30.16,SSE,157,0.0,0.0,90,0.00,,,0.00,WUHU21523XXSP,2013-01-12 15:57:00,
2013-01-12 11:02:00,53.4,50.2,30.16,SSE,157,0.0,0.0,89,0.00,,,0.00,WUHU21523XXSP,2013-01-12 16:02:00,
2013-01-12 11:07:00,53.6,50.4,30.16,SSE,157,0.0,0.0,89,0.00,,,0.00,WUHU21523XXSP,2013-01-12 16:07:00,
2013-01-12 11:12:00,54.1,51.3,30.16,SSE,157,0.0,0.0,90,0.00,,,0.00,WUHU21523XXSP,2013-01-12 16:12:00,
2013-01-12 11:17:00,54.7,51.5,30.15,NE,45,0.0,0.0,89,0.00,,,0.00,WUHU21523XXSP,2013-01-12 16:17:00,
2013-01-12 11:22:00,55.2,52.0,30.15,NNE,22,1.1,1.1,89,0.00,,,0.00,WUHU21523XXSP,2013-01-12 16:22:00,
2013-01-12 11:27:00,55.6,52.1,30.15,North,0,0.0,1.1,88,0.00,,,0.00,WUHU21523XXSP,2013-01-12 16:27:00,
2013-01-12 11:32:00,56.1,52.6,30.15,NNE,22,0.0,0.0,88,0.00,,,0.00,WUHU21523XXSP,2013-01-12 16:32:00,
2013-01-12 11:37:00,56.5,53.0,30.15,NNE,22,0.0,0.0,88,0.00,,,0.00,WUHU21523XXSP,2013-01-12 16:37:00,
2013-01-12 11:42:00,56.8,53.3,30.15,NNE,22,0.0,0.0,88,0.00,,,0.00,WUHU21523XXSP,2013-01-12 16:42:00,
2013-01-12 11:47:00,57.0,53.2,30.14,NNE,22,0.0,0.0,87,0.00,,,0.00,WUHU21523XXSP,2013-01-12 16:47:00,
2013-01-12 11:52:00,57.4,53.5,30.14,NNE,22,0.0,0.0,87,0.00,,,0.00,WUHU21523XXSP,2013-01-12 16:52:00,
2013-01-12 11:57:00,57.4,53.2,30.14,NNE,22,0.0,0.0,86,0.00,,,0.00,WUHU21523XXSP,2013-01-12 16:57:00,
2013-01-12 12:02:00,57.7,53.6,30.14,NE,45,0.0,0.0,86,0.00,,,0.00,WUHU21523XXSP,2013-01-12 17:02:00,
2013-01-12 12:07:00,57.9,53.7,30.13,NE,45,0.0,0.0,86,0.00,,,0.00,WUHU21523XXSP,2013-01-12 17:07:00,
2013-01-12 12:12:00,58.3,54.1,30.13,ENE,67,0.0,0.0,86,0.00,,,0.00,WUHU21523XXSP,2013-01-12 17:12:00,
2013-01-12 12:17:00,58.8,54.3,30.13,NE,45,0.0,0.0,85,0.00,,,0.00,WUHU21523XXSP,2013-01-12 17:17:00,
2013-01-12 12:22:00,59.2,54.7,30.13,NE,45,0.0,0.0,85,0.00,,,0.00,WUHU21523XXSP,2013-01-12 17:22:00,
2013-01-12 12:27:00,59.4,54.9,30.13,NE,45,0.0,0.0,85,0.00,,,0.00,WUHU21523XXSP,2013-01-12 17:27:00,
2013-01-12 12:32:00,59.5,55.0,30.12,NE,45,0.0,0.0,85,0.00,,,0.00,WUHU21523XXSP,2013-01-12 17:32:00,
2013-01-12 12:37:00,59.9,55.4,30.12,NE,45,0.0,0.0,85,0.00,,,0.00,WUHU21523XXSP,2013-01-12 17:37:00,
2013-01-12 12:42:00,60.3,55.8,30.12,South,180,0.0,0.0,85,0.00,,,0.00,WUHU21523XXSP,2013-01-12 17:42:00,
2013-01-12 12:47:00,61.0,56.5,30.12,ENE,67,0.0,0.0,85,0.00,,,0.00,WUHU21523XXSP,2013-01-12 17:47:00,
2013-01-12 12:52:00,61.3,56.6,30.11,ENE,67,0.0,0.0,85,0.00,,,0.00,WUHU21523XXSP,2013-01-12 17:52:00,
2013-01-12 12:57:00,61.7,56.8,30.12,ENE,67,0.0,0.0,84,0.00,,,0.00,WUHU21523XXSP,2013-01-12 17:57:00,
2013-01-12 13:02:00,61.9,56.6,30.11,ENE,67,0.0,0.0,83,0.00,,,0.00,WUHU21523XXSP,2013-01-12 18:02:00,
2013-01-12 13:07:00,61.9,56.6,30.12,ENE,67,0.0,0.0,83,0.00,,,0.00,WUHU21523XXSP,2013-01-12 18:07:00,
2013-01-12 13:12:00,61.9,56.6,30.11,ENE,67,0.0,0.0,83,0.00,,,0.00,WUHU21523XXSP,2013-01-12 18:12:00,
2013-01-12 13:17:00,61.9,56.6,30.11,ENE,67,0.0,0.0,83,0.00,,,0.00,WUHU21523XXSP,2013-01-12 18:17:00,
2013-01-12 13:22:00,62.1,56.8,30.11,ENE,67,0.0,0.0,83,0.00,,,0.00,WUHU21523XXSP,2013-01-12 18:22:00,
2013-01-12 13:27:00,61.9,56.6,30.11,ENE,67,0.0,0.0,83,0.00,,,0.00,WUHU21523XXSP,2013-01-12 18:27:00,
2013-01-12 13:32:00,61.9,56.6,30.11,ENE,67,0.0,0.0,83,0.00,,,0.00,WUHU21523XXSP,2013-01-12 18:32:00,
2013-01-12 13:37:00,61.9,56.6,30.11,ENE,67,0.0,0.0,83,0.00,,,0.00,WUHU21523XXSP,2013-01-12 18:37:00,
2013-01-12 13:42:00,62.2,57.0,30.11,ENE,67,0.0,0.0,83,0.00,,,0.00,WUHU21523XXSP,2013-01-12 18:42:00,
2013-01-12 13:47:00,62.2,57.0,30.11,ENE,67,0.0,0.0,83,0.00,,,0.00,WUHU21523XXSP,2013-01-12 18:47:00,
2013-01-12 13:52:00,62.8,57.5,30.11,ENE,67,0.0,0.0,83,0.00,,,0.00,WUHU21523XXSP,2013-01-12 18:52:00,
2013-01-12 13:57:00,63.1,57.5,30.11,ENE,67,0.0,0.0,82,0.00,,,0.00,WUHU21523XXSP,2013-01-12 18:57:00,
2013-01-12 14:02:00,63.3,57.7,30.10,SSE,157,0.0,0.0,82,0.00,,,0.00,WUHU21523XXSP,2013-01-12 19:02:00,
2013-01-12 14:07:00,64.2,58.6,30.10,SSE,157,0.0,0.0,82,0.00,,,0.00,WUHU21523XXSP,2013-01-12 19:07:00,
2013-01-12 14:12:00,64.2,58.6,30.10,West,270,0.0,0.0,82,0.00,,,0.00,WUHU21523XXSP,2013-01-12 19:12:00,
2013-01-12 14:17:00,64.9,59.3,30.10,NNE,22,0.0,0.0,82,0.00,,,0.00,WUHU21523XXSP,2013-01-12 19:17:00,
2013-01-12 14:22:00,65.3,59.3,30.10,NNE,22,0.0,0.0,81,0.00,,,0.00,WUHU21523XXSP,2013-01-12 19:22:00,
2013-01-12 14:27:00,65.1,58.8,30.10,NNE,22,0.0,0.0,80,0.00,,,0.00,WUHU21523XXSP,2013-01-12 19:27:00,
2013-01-12 14:32:00,65.3,59.0,30.10,NNE,22,0.0,0.0,80,0.00,,,0.00,WUHU21523XXSP,2013-01-12 19:32:00,
2013-01-12 14:37:00,65.3,58.6,30.10,NNE,22,0.0,0.0,79,0.00,,,0.00,WUHU21523XXSP,2013-01-12 19:37:00,
2013-01-12 14:42:00,65.5,59.2,30.10,NNE,22,0.0,0.0,80,0.00,,,0.00,WUHU21523XXSP,2013-01-12 19:42:00,
2013-01-12 14:47:00,65.7,59.0,30.10,NNE,22,0.0,0.0,79,0.00,,,0.00,WUHU21523XXSP,2013-01-12 19:47:00,
2013-01-12 14:52:00,66.0,59.7,30.10,WSW,247,0.0,0.0,80,0.00,,,0.00,WUHU21523XXSP,2013-01-12 19:52:00,
2013-01-12 14:57:00,66.0,59.3,30.10,WSW,247,0.0,0.0,79,0.00,,,0.00,WUHU21523XXSP,2013-01-12 19:57:00,
2013-01-12 15:02:00,66.4,60.1,30.10,WSW,247,0.0,0.0,80,0.00,,,0.00,WUHU21523XXSP,2013-01-12 20:02:00,
2013-01-12 15:07:00,66.7,60.1,30.10,ENE,67,0.0,0.0,79,0.00,,,0.00,WUHU21523XXSP,2013-01-12 20:07:00,
2013-01-12 15:12:00,66.9,59.9,30.09,NE,45,0.0,0.0,78,0.00,,,0.00,WUHU21523XXSP,2013-01-12 20:12:00,
2013-01-12 15:17:00,66.9,59.9,30.10,NE,45,0.0,0.0,78,0.00,,,0.00,WUHU21523XXSP,2013-01-12 20:17:00,
2013-01-12 15:22:00,67.1,60.0,30.09,ENE,67,0.0,0.0,78,0.00,,,0.00,WUHU21523XXSP,2013-01-12 20:22:00,
2013-01-12 15:27:00,67.3,60.0,30.10,ENE,67,0.0,0.0,78,0.00,,,0.00,WUHU21523XXSP,2013-01-12 20:27:00,
2013-01-12 15:32:00,67.3,59.8,30.09,ENE,67,0.0,0.0,77,0.00,,,0.00,WUHU21523XXSP,2013-01-12 20:32:00,
2013-01-12 15:37:00,67.5,60.0,30.10,ENE,67,0.0,0.0,77,0.00,,,0.00,WUHU21523XXSP,2013-01-12 20:37:00,
2013-01-12 15:42:00,67.6,60.2,30.10,South,180,0.0,0.0,77,0.00,,,0.00,WUHU21523XXSP,2013-01-12 20:42:00,
2013-01-12 15:47:00,67.8,60.4,30.10,SE,135,0.0,0.0,77,0.00,,,0.00,WUHU21523XXSP,2013-01-12 20:47:00,
2013-01-12 15:52:00,67.6,59.8,30.09,SE,135,0.0,0.0,76,0.00,,,0.00,WUHU21523XXSP,2013-01-12 20:52:00,
2013-01-12 15:57:00,67.6,59.8,30.09,ESE,112,0.0,0.0,76,0.00,,,0.00,WUHU21523XXSP,2013-01-12 20:57:00,
2013-01-12 16:02:00,67.6,59.8,30.09,ESE,112,0.0,0.0,76,0.00,,,0.00,WUHU21523XXSP,2013-01-12 21:02:00,
2013-01-12 16:07:00,67.6,60.2,30.09,ESE,112,0.0,0.0,77,0.00,,,0.00,WUHU21523XXSP,2013-01-12 21:07:00,
2013-01-12 16:12:00,67.6,60.2,30.09,ESE,112,0.0,0.0,77,0.00,,,0.00,WUHU21523XXSP,2013-01-12 21:12:00,
2013-01-12 16:17:00,67.6,60.2,30.09,ENE,67,0.0,0.0,77,0.00,,,0.00,WUHU21523XXSP,2013-01-12 21:17:00,
2013-01-12 16:22:00,67.6,60.2,30.09,ESE,112,0.0,0.0,77,0.00,,,0.00,WUHU21523XXSP,2013-01-12 21:22:00,
2013-01-12 16:27:00,67.3,59.8,30.10,SSW,202,0.0,0.0,77,0.00,,,0.00,WUHU21523XXSP,2013-01-12 21:27:00,
2013-01-12 16:32:00,67.5,60.0,30.10,SSW,202,0.0,0.0,77,0.00,,,0.00,WUHU21523XXSP,2013-01-12 21:32:00,
2013-01-12 16:37:00,67.3,59.8,30.10,NE,45,0.0,0.0,77,0.00,,,0.00,WUHU21523XXSP,2013-01-12 21:37:00,
2013-01-12 16:42:00,67.3,59.8,30.09,NE,45,0.0,0.0,77,0.00,,,0.00,WUHU21523XXSP,2013-01-12 21:42:00,
2013-01-12 16:47:00,67.1,59.7,30.10,NE,45,0.0,0.0,77,0.00,,,0.00,WUHU21523XXSP,2013-01-12 21:47:00,
2013-01-12 16:52:00,66.9,59.5,30.09,NE,45,0.0,0.0,77,0.00,,,0.00,WUHU21523XXSP,2013-01-12 21:52:00,
2013-01-12 16:57:00,66.7,59.3,30.10,NE,45,0.0,0.0,77,0.00,,,0.00,WUHU21523XXSP,2013-01-12 21:57:00,
2013-01-12 17:02:00,66.6,59.1,30.10,NE,45,0.0,0.0,77,0.00,,,0.00,WUHU21523XXSP,2013-01-12 22:02:00,
2013-01-12 17:07:00,66.0,58.9,30.10,NE,45,0.0,0.0,77,0.00,,,0.00,WUHU21523XXSP,2013-01-12 22:07:00,
2013-01-12 17:12:00,65.8,58.4,30.10,NE,45,0.0,0.0,77,0.00,,,0.00,WUHU21523XXSP,2013-01-12 22:12:00,
2013-01-12 17:17:00,65.5,58.6,30.09,NE,45,0.0,0.0,78,0.00,,,0.00,WUHU21523XXSP,2013-01-12 22:17:00,
2013-01-12 17:22:00,65.1,58.1,30.10,NE,45,0.0,0.0,78,0.00,,,0.00,WUHU21523XXSP,2013-01-12 22:22:00,
2013-01-12 17:27:00,64.8,58.1,30.10,NE,45,0.0,0.0,79,0.00,,,0.00,WUHU21523XXSP,2013-01-12 22:27:00,
2013-01-12 17:32:00,64.6,57.9,30.09,NE,45,0.0,0.0,79,0.00,,,0.00,WUHU21523XXSP,2013-01-12 22:32:00,
2013-01-12 17:37:00,64.2,57.6,30.10,NE,45,31.3,31.3,79,0.00,,,0.00,WUHU21523XXSP,2013-01-12 22:37:00,
2013-01-12 17:42:00,64.0,57.4,30.09,NNE,22,25.9,31.3,79,0.00,,,0.00,WUHU21523XXSP,2013-01-12 22:42:00,
2013-01-12 17:47:00,63.9,57.6,30.09,NNE,22,30.0,30.0,80,0.00,,,0.00,WUHU21523XXSP,2013-01-12 22:47:00,
2013-01-12 17:52:00,63.7,57.4,30.09,NE,45,29.5,30.0,80,0.00,,,0.00,WUHU21523XXSP,2013-01-12 22:52:00,
2013-01-12 17:57:00,63.7,57.4,30.09,NNE,22,25.7,29.5,80,0.00,,,0.00,WUHU21523XXSP,2013-01-12 22:57:00,
2013-01-12 18:07:00,63.5,57.2,30.09,NE,45,28.4,28.4,80,0.00,,,0.00,WUHU21523XXSP,2013-01-12 23:07:00,
2013-01-12 18:12:00,63.3,57.0,30.09,NE,45,20.6,28.4,80,0.00,,,0.00,WUHU21523XXSP,2013-01-12 23:12:00,
2013-01-12 18:17:00,63.1,56.8,30.09,NE,45,26.6,26.6,80,0.00,,,0.00,WUHU21523XXSP,2013-01-12 23:17:00,
2013-01-12 18:22:00,63.1,56.8,30.09,NE,45,23.3,34.4,80,0.00,,,0.00,WUHU21523XXSP,2013-01-12 23:22:00,
2013-01-12 18:27:00,63.0,57.0,30.09,NE,45,18.6,34.4,81,0.00,,,0.00,WUHU21523XXSP,2013-01-12 23:27:00,
2013-01-12 18:32:00,62.8,56.8,30.09,NE,45,0.0,24.2,81,0.00,,,0.00,WUHU21523XXSP,2013-01-12 23:32:00,
2013-01-12 18:37:00,62.4,56.5,30.09,ENE,67,24.4,25.9,81,0.00,,,0.00,WUHU21523XXSP,2013-01-12 23:37:00,
2013-01-12 18:47:00,62.1,56.1,30.09,ENE,67,19.2,24.4,81,0.00,,,0.00,WUHU21523XXSP,2013-01-12 23:47:00,
2013-01-12 18:52:00,61.9,56.3,30.09,ENE,67,21.0,25.9,82,0.00,,,0.00,WUHU21523XXSP,2013-01-12 23:52:00,
2013-01-12 18:57:00,61.9,56.3,30.09,ENE,67,0.0,25.9,82,0.00,,,0.00,WUHU21523XXSP,2013-01-12 23:57:00,
2013-01-12 19:02:00,61.7,56.2,30.09,ENE,67,0.0,21.0,82,0.00,,,0.00,WUHU21523XXSP,2013-01-13 00:02:00,
2013-01-12 19:07:00,61.5,56.0,30.09,ENE,67,0.0,0.0,82,0.00,,,0.00,WUHU21523XXSP,2013-01-13 00:07:00,
2013-01-12 19:12:00,61.3,55.8,30.09,ENE,67,0.0,0.0,82,0.00,,,0.00,WUHU21523XXSP,2013-01-13 00:12:00,
2013-01-12 19:17:00,61.2,55.7,30.09,ENE,67,0.0,0.0,82,0.00,,,0.00,WUHU21523XXSP,2013-01-13 00:17:00,
2013-01-12 19:22:00,61.0,55.8,30.09,ENE,67,23.0,23.0,83,0.00,,,0.00,WUHU21523XXSP,2013-01-13 00:22:00,
2013-01-12 19:27:00,60.6,55.5,30.09,ENE,67,13.6,23.0,83,0.00,,,0.00,WUHU21523XXSP,2013-01-13 00:27:00,
2013-01-12 19:32:00,60.6,55.8,30.09,ENE,67,18.3,18.3,84,0.00,,,0.00,WUHU21523XXSP,2013-01-13 00:32:00,
2013-01-12 19:37:00,60.6,55.8,30.09,ENE,67,0.0,23.9,84,0.00,,,0.00,WUHU21523XXSP,2013-01-13 00:37:00,
2013-01-12 19:42:00,60.4,55.6,30.09,ENE,67,0.0,23.9,84,0.00,,,0.00,WUHU21523XXSP,2013-01-13 00:42:00,
2013-01-12 19:47:00,60.1,54.9,30.10,ENE,67,0.0,0.0,83,0.00,,,0.00,WUHU21523XXSP,2013-01-13 00:47:00,
2013-01-12 19:52:00,59.7,54.6,30.10,ENE,67,0.0,0.0,83,0.00,,,0.00,WUHU21523XXSP,2013-01-13 00:52:00,
2013-01-12 20:02:00,59.4,54.5,30.09,ENE,67,0.0,0.0,84,0.00,,,0.00,WUHU21523XXSP,2013-01-13 01:02:00,
2013-01-12 20:07:00,59.2,54.7,30.09,ENE,67,0.0,0.0,85,0.00,,,0.00,WUHU21523XXSP,2013-01-13 01:07:00,
2013-01-12 20:12:00,59.2,54.7,30.09,ENE,67,0.0,0.0,85,0.00,,,0.00,WUHU21523XXSP,2013-01-13 01:12:00,
2013-01-12 20:17:00,59.2,54.7,30.09,ENE,67,0.0,0.0,85,0.00,,,0.00,WUHU21523XXSP,2013-01-13 01:17:00,
2013-01-12 20:22:00,59.2,54.7,30.10,ENE,67,0.0,0.0,85,0.00,,,0.00,WUHU21523XXSP,2013-01-13 01:22:00,
2013-01-12 20:27:00,58.8,54.3,30.10,ENE,67,0.0,0.0,85,0.00,,,0.00,WUHU21523XXSP,2013-01-13 01:27:00,
2013-01-12 20:32:00,58.6,54.1,30.10,ENE,67,0.0,0.0,85,0.00,,,0.00,WUHU21523XXSP,2013-01-13 01:32:00,
2013-01-12 20:37:00,58.6,54.1,30.10,ENE,67,0.0,0.0,85,0.00,,,0.00,WUHU21523XXSP,2013-01-13 01:37:00,
2013-01-12 20:42:00,58.6,54.1,30.09,ENE,67,0.0,0.0,85,0.00,,,0.00,WUHU21523XXSP,2013-01-13 01:42:00,
2013-01-12 20:48:00,58.5,54.0,30.09,ENE,67,0.0,0.0,85,0.00,,,0.00,WUHU21523XXSP,2013-01-13 01:48:00,
2013-01-12 20:53:00,58.3,53.8,30.09,ENE,67,0.0,0.0,85,0.00,,,0.00,WUHU21523XXSP,2013-01-13 01:53:00,
2013-01-12 20:58:00,58.1,53.6,30.09,ENE,67,0.0,0.0,85,0.00,,,0.00,WUHU21523XXSP,2013-01-13 01:58:00,
2013-01-12 21:03:00,57.9,53.4,30.09,ENE,67,0.0,0.0,85,0.00,,,0.00,WUHU21523XXSP,2013-01-13 02:03:00,
2013-01-12 21:08:00,57.7,53.2,30.09,ENE,67,0.0,0.0,85,0.00,,,0.00,WUHU21523XXSP,2013-01-13 02:08:00,
2013-01-12 21:13:00,57.6,53.1,30.09,ENE,67,0.0,0.0,85,0.00,,,0.00,WUHU21523XXSP,2013-01-13 02:13:00,
2013-01-12 21:18:00,57.4,52.9,30.09,ENE,67,0.0,0.0,85,0.00,,,0.00,WUHU21523XXSP,2013-01-13 02:18:00,
2013-01-12 21:23:00,57.2,52.7,30.09,ENE,67,0.0,0.0,85,0.00,,,0.00,WUHU21523XXSP,2013-01-13 02:23:00,
2013-01-12 21:28:00,57.0,52.5,30.09,ENE,67,0.0,0.0,85,0.00,,,0.00,WUHU21523XXSP,2013-01-13 02:28:00,
2013-01-12 21:33:00,57.0,52.5,30.09,ENE,67,0.0,0.0,85,0.00,,,0.00,WUHU21523XXSP,2013-01-13 02:33:00,
2013-01-12 21:38:00,56.8,52.3,30.09,ENE,67,0.0,0.0,85,0.00,,,0.00,WUHU21523XXSP,2013-01-13 02:38:00,
2013-01-12 21:43:00,56.8,52.3,30.09,ENE,67,0.0,0.0,85,0.00,,,0.00,WUHU21523XXSP,2013-01-13 02:43:00,
2013-01-12 21:48:00,56.7,52.2,30.09,ENE,67,0.0,0.0,85,0.00,,,0.00,WUHU21523XXSP,2013-01-13 02:48:00,
2013-01-12 21:53:00,56.5,52.3,30.09,ENE,67,0.0,0.0,86,0.00,,,0.00,WUHU21523XXSP,2013-01-13 02:53:00,
2013-01-12 21:58:00,56.5,52.3,30.09,ENE,67,0.0,0.0,86,0.00,,,0.00,WUHU21523XXSP,2013-01-13 02:58:00,
2013-01-12 22:03:00,56.5,52.3,30.09,ENE,67,0.0,0.0,86,0.00,,,0.00,WUHU21523XXSP,2013-01-13 03:03:00,
2013-01-12 22:08:00,56.5,52.3,30.09,ENE,67,0.0,0.0,86,0.00,,,0.00,WUHU21523XXSP,2013-01-13 03:08:00,
2013-01-12 22:13:00,56.5,52.3,30.09,ENE,67,0.0,0.0,86,0.00,,,0.00,WUHU21523XXSP,2013-01-13 03:13:00,
2013-01-12 22:18:00,56.1,51.9,30.09,ENE,67,0.0,0.0,86,0.00,,,0.00,WUHU21523XXSP,2013-01-13 03:18:00,
2013-01-12 22:23:00,55.9,51.8,30.09,ENE,67,0.0,0.0,86,0.00,,,0.00,WUHU21523XXSP,2013-01-13 03:23:00,
2013-01-12 22:28:00,55.9,51.8,30.09,ENE,67,0.0,0.0,86,0.00,,,0.00,WUHU21523XXSP,2013-01-13 03:28:00,
2013-01-12 22:38:00,55.6,51.4,30.09,ENE,67,0.0,0.0,86,0.00,,,0.00,WUHU21523XXSP,2013-01-13 03:38:00,
2013-01-12 22:43:00,55.6,51.4,30.09,ENE,67,0.0,0.0,86,0.00,,,0.00,WUHU21523XXSP,2013-01-13 03:43:00,
2013-01-12 22:53:00,55.9,52.4,30.09,NNW,337,0.0,0.0,88,0.00,,,0.00,WUHU21523XXSP,2013-01-13 03:53:00,
2013-01-12 23:03:00,56.1,52.6,30.09,NNE,22,0.0,0.0,88,0.00,,,0.00,WUHU21523XXSP,2013-01-13 04:03:00,
2013-01-12 23:13:00,56.1,52.6,30.09,NNE,22,0.0,0.0,88,0.00,,,0.00,WUHU21523XXSP,2013-01-13 04:13:00,
2013-01-12 23:18:00,56.1,52.6,30.10,NNE,22,0.0,0.0,88,0.00,,,0.00,WUHU21523XXSP,2013-01-13 04:18:00,
2013-01-12 23:23:00,55.9,52.4,30.10,NNE,22,0.0,0.0,88,0.00,,,0.00,WUHU21523XXSP,2013-01-13 04:23:00,
2013-01-12 23:28:00,55.9,52.4,30.10,NNE,22,0.0,0.0,88,0.00,,,0.00,WUHU21523XXSP,2013-01-13 04:28:00,
2013-01-12 23:33:00,55.6,52.1,30.09,NNE,22,0.0,0.0,88,0.00,,,0.00,WUHU21523XXSP,2013-01-13 04:33:00,
2013-01-12 23:38:00,55.6,52.1,30.09,NNE,22,0.0,0.0,88,0.00,,,0.00,WUHU21523XXSP,2013-01-13 04:38:00,
2013-01-12 23:43:00,55.2,51.7,30.09,NNE,22,0.0,0.0,88,0.00,,,0.00,WUHU21523XXSP,2013-01-13 04:43:00,
2013-01-12 23:48:00,55.2,51.7,30.09,NNE,22,0.0,0.0,88,0.00,,,0.00,WUHU21523XXSP,2013-01-13 04:48:00,
2013-01-12 23:53:00,55.0,51.5,30.09,NNE,22,0.0,0.0,88,0.00,,,0.00,WUHU21523XXSP,2013-01-13 04:53:00,
2013-01-12 23:58:00,54.9,51.3,30.09,NNE,22,0.0,0.0,88,0.00,,,0.00,WUHU21523XXSP,2013-01-13 04:58:00,